Time;durP1;ratioP1;P1;durP2;ratioP2;P2;SDS_P1;SDS_P2;PMS_P1;PMS_P2;Temp;Humidity;BMP_temperature;BMP_pressure;BME280_temperature;BME280_humidity;BME280_pressure;Samples;Min_cycle;Max_cycle;Signal;HPM_P1;HPM_P2
2022/02/11 00:05:30;;;;;;;44.60;27.75;;;6.30;99.90;;;;;;5114244;28;20709;-75
2022/02/11 00:07:33;;;;;;;40.05;25.75;;;6.20;99.90;;;;;;5113445;28;20622;-75
2022/02/11 00:10:02;;;;;;;37.95;24.92;;;6.20;99.90;;;;;;5095110;28;20645;-75
2022/02/11 00:12:30;;;;;;;39.47;26.05;;;6.10;99.90;;;;;;5095429;28;20202;-75
2022/02/11 00:17:24;;;;;;;39.05;24.65;;;6.10;99.90;;;;;;5117767;28;20180;-75
2022/02/11 00:19:57;;;;;;;36.60;25.42;;;6.10;99.90;;;;;;5098711;28;20226;-75
2022/02/11 00:22:25;;;;;;;37.22;26.23;;;6.00;99.90;;;;;;5099324;28;20204;-69
2022/02/11 00:24:54;;;;;;;43.33;29.13;;;6.00;99.90;;;;;;5099496;28;20215;-73
2022/02/11 00:28:01;;;;;;;42.67;26.85;;;6.00;99.90;;;;;;5099097;28;20204;-69
2022/02/11 00:35:50;;;;;;;41.25;25.88;;;6.10;99.90;;;;;;5117919;28;20633;-69
2022/02/11 00:38:25;;;;;;;38.95;23.08;;;6.20;99.90;;;;;;5098480;28;20211;-69
2022/02/11 01:03:02;;;;;;;37.25;24.30;;;6.50;99.90;;;;;;5116996;28;20215;-74
2022/02/11 01:05:28;;;;;;;33.75;22.15;;;6.50;99.90;;;;;;5097970;28;20610;-69
2022/02/11 01:07:56;;;;;;;37.42;24.08;;;6.60;99.90;;;;;;5098200;28;20196;-75
2022/02/11 01:10:23;;;;;;;37.05;21.55;;;6.60;99.90;;;;;;5098278;28;20306;-69
2022/02/11 01:12:49;;;;;;;31.42;22.02;;;6.70;99.90;;;;;;5098123;28;20656;-69
2022/02/11 01:15:26;;;;;;;37.70;21.88;;;6.70;99.90;;;;;;5098098;28;20180;-74
2022/02/11 01:18:00;;;;;;;37.08;21.58;;;6.70;99.90;;;;;;5097982;28;20564;-75
2022/02/11 01:31:01;;;;;;;28.95;20.08;;;6.70;99.90;;;;;;5116657;28;20171;-69
2022/02/11 01:57:17;;;;;;;46.67;28.95;;;6.40;99.90;;;;;;5116025;28;20192;-74
2022/02/11 02:00:22;;;;;;;53.78;28.58;;;6.40;99.90;;;;;;5097668;28;20648;-69
2022/02/11 02:17:35;;;;;;;32.75;19.98;;;6.40;99.90;;;;;;5115874;28;20167;-74
2022/02/11 02:25:19;;;;;;;30.90;20.17;;;6.40;99.90;;;;;;5115289;28;20184;-69
2022/02/11 02:33:19;;;;;;;32.50;19.45;;;6.40;99.90;;;;;;5074394;28;20189;-73
2022/02/11 02:35:55;;;;;;;30.83;19.40;;;6.40;99.90;;;;;;5074415;28;20184;-69
2022/02/11 02:58:14;;;;;;;31.55;20.20;;;6.20;99.90;;;;;;5074381;28;20192;-75
2022/02/11 03:14:52;;;;;;;28.63;18.42;;;6.30;99.90;;;;;;5073926;28;20176;-69
2022/02/11 04:21:20;;;;;;;28.42;22.92;;;5.80;99.90;;;;;;5117463;28;20214;-74
2022/02/11 04:56:45;;;;;;;37.88;24.95;;;5.70;99.90;;;;;;5116797;28;20168;-69
2022/02/11 05:01:59;;;;;;;31.08;23.17;;;5.70;99.90;;;;;;5116680;28;20212;-75
2022/02/11 05:04:29;;;;;;;30.17;19.30;;;5.60;99.90;;;;;;5098403;28;20195;-74
2022/02/11 05:07:00;;;;;;;32.60;20.27;;;5.60;99.90;;;;;;5098414;28;20608;-75
2022/02/11 05:09:30;;;;;;;31.73;21.65;;;5.70;99.90;;;;;;5097879;28;20280;-69
2022/02/11 05:11:56;;;;;;;31.67;22.90;;;5.70;99.90;;;;;;5097777;28;20183;-69
2022/02/11 05:14:23;;;;;;;38.55;23.08;;;5.80;99.90;;;;;;5097852;28;20263;-69
2022/02/11 05:16:50;;;;;;;30.33;20.88;;;5.80;99.90;;;;;;5097745;28;20178;-69
2022/02/11 05:19:19;;;;;;;43.20;24.02;;;5.90;99.90;;;;;;5097871;28;20207;-69
2022/02/11 05:21:56;;;;;;;33.92;22.30;;;5.90;99.90;;;;;;5098456;28;20176;-75
2022/02/11 05:24:25;;;;;;;31.85;22.15;;;5.90;99.90;;;;;;5098129;28;20234;-75
2022/02/11 05:26:54;;;;;;;34.80;24.05;;;5.90;99.90;;;;;;5097935;28;20194;-75
2022/02/11 05:29:36;;;;;;;32.83;21.98;;;6.00;99.90;;;;;;5097789;28;20738;-75
2022/02/11 05:32:04;;;;;;;40.15;22.88;;;6.00;99.90;;;;;;5098336;28;20613;-68
2022/02/11 05:34:34;;;;;;;31.35;21.20;;;6.10;99.90;;;;;;5116625;28;20652;-68
2022/02/11 05:37:01;;;;;;;32.45;22.25;;;6.10;99.90;;;;;;5097642;28;20236;-75
2022/02/11 05:39:29;;;;;;;35.88;22.38;;;6.10;99.90;;;;;;5097550;28;20176;-74
2022/02/11 05:41:56;;;;;;;41.25;24.80;;;6.10;99.90;;;;;;5116044;28;20168;-69
2022/02/11 05:44:22;;;;;;;39.58;23.85;;;6.00;99.90;;;;;;5097548;28;20176;-69
2022/02/11 05:46:52;;;;;;;40.95;25.67;;;6.00;99.90;;;;;;5097379;28;20183;-69
2022/02/11 05:49:18;;;;;;;40.05;26.95;;;5.90;99.90;;;;;;5115425;28;20208;-69
2022/02/11 05:51:49;;;;;;;66.22;38.20;;;5.80;99.90;;;;;;5097155;28;20184;-75
2022/02/11 05:54:22;;;;;;;85.60;48.63;;;5.70;99.90;;;;;;5097521;28;20274;-75
2022/02/11 05:56:51;;;;;;;56.83;36.08;;;5.60;99.90;;;;;;5097388;28;20186;-68
2022/02/11 05:59:18;;;;;;;66.28;41.05;;;5.50;99.90;;;;;;5097305;28;20182;-69
2022/02/11 06:01:47;;;;;;;63.13;44.75;;;5.40;99.90;;;;;;5096963;28;20675;-75
2022/02/11 06:04:14;;;;;;;54.67;38.25;;;5.40;99.90;;;;;;5097209;28;20276;-74
2022/02/11 06:06:41;;;;;;;86.63;60.40;;;5.40;99.90;;;;;;5097160;28;20179;-69
2022/02/11 06:09:08;;;;;;;70.25;52.35;;;5.30;99.90;;;;;;5096772;28;20636;-68
2022/02/11 06:11:37;;;;;;;80.18;60.78;;;5.30;99.90;;;;;;5097085;28;20695;-75
2022/02/11 06:14:04;;;;;;;140.77;71.70;;;5.30;99.90;;;;;;5095544;28;20199;-68
2022/02/11 06:16:33;;;;;;;139.20;68.63;;;5.30;99.90;;;;;;5096730;28;20176;-75
2022/02/11 06:19:02;;;;;;;133.77;70.78;;;5.30;99.90;;;;;;5092774;28;20270;-68
2022/02/11 06:21:29;;;;;;;201.95;108.25;;;5.30;99.90;;;;;;5085323;28;20179;-68
2022/02/11 06:24:02;;;;;;;209.43;101.65;;;5.40;99.90;;;;;;5084126;28;20207;-75
2022/02/11 06:26:37;;;;;;;135.63;64.38;;;5.40;99.90;;;;;;5083612;28;20283;-68
2022/02/11 06:29:05;;;;;;;81.85;44.85;;;5.40;99.90;;;;;;5084878;28;20238;-75
2022/02/11 06:31:33;;;;;;;47.33;30.00;;;5.50;99.90;;;;;;5089827;28;20173;-75
2022/02/11 06:34:00;;;;;;;46.90;29.08;;;5.60;99.90;;;;;;5091806;28;20584;-68
2022/02/11 06:36:26;;;;;;;98.55;58.20;;;5.60;99.90;;;;;;5092369;28;20180;-75
2022/02/11 06:38:52;;;;;;;79.60;52.00;;;5.60;99.90;;;;;;5091727;28;20607;-75
2022/02/11 06:41:20;;;;;;;54.33;34.10;;;5.70;99.90;;;;;;5074909;28;20662;-75
2022/02/11 06:43:47;;;;;;;63.03;36.78;;;5.60;99.90;;;;;;5075819;28;20200;-75
2022/02/11 06:46:13;;;;;;;75.45;41.05;;;5.60;99.90;;;;;;5074874;28;20180;-68
2022/02/11 06:48:39;;;;;;;57.97;34.70;;;5.60;99.90;;;;;;5074922;28;20216;-75
2022/02/11 06:51:09;;;;;;;59.70;30.60;;;5.60;99.90;;;;;;5080366;28;20186;-75
2022/02/11 06:53:38;;;;;;;52.40;31.52;;;5.50;99.90;;;;;;5093690;28;20207;-75
2022/02/11 06:56:04;;;;;;;64.07;35.75;;;5.50;99.90;;;;;;5088292;28;20219;-68
2022/02/11 06:58:30;;;;;;;65.50;35.47;;;5.50;99.90;;;;;;5094672;28;20200;-68
2022/02/11 07:00:59;;;;;;;51.53;30.50;;;5.50;99.90;;;;;;5094344;28;20580;-75
2022/02/11 07:03:29;;;;;;;42.55;25.35;;;5.50;99.90;;;;;;5089478;28;20464;-68
2022/02/11 07:05:58;;;;;;;43.85;31.88;;;5.60;99.90;;;;;;5088360;28;20714;-68
2022/02/11 07:08:27;;;;;;;42.40;31.83;;;5.70;99.90;;;;;;5084328;28;20199;-68
2022/02/11 07:11:02;;;;;;;42.13;28.17;;;5.80;99.90;;;;;;5074997;28;20185;-68
2022/02/11 07:14:34;;;;;;;33.08;22.40;;;5.80;99.90;;;;;;5099359;28;20257;-68
2022/02/11 07:27:39;;;;;;;28.10;21.58;;;6.40;99.90;;;;;;5102397;28;20316;-68
2022/02/11 07:33:34;;;;;;;40.08;26.85;;;6.60;99.90;;;;;;5065166;22;20676;-68
2022/02/11 07:36:00;;;;;;;42.97;31.15;;;6.80;99.90;;;;;;5030458;28;20187;-68
2022/02/11 07:38:30;;;;;;;26.73;20.63;;;7.00;99.90;;;;;;5039976;28;20208;-75
2022/02/11 07:40:58;;;;;;;30.88;20.88;;;7.30;99.90;;;;;;4973724;28;20500;-68
2022/02/11 07:43:28;;;;;;;36.67;27.05;;;7.50;99.90;;;;;;4968469;28;20215;-76
2022/02/11 07:45:55;;;;;;;29.88;21.45;;;7.80;99.90;;;;;;4969799;28;20279;-69
2022/02/11 07:48:41;;;;;;;34.08;25.17;;;8.10;99.90;;;;;;4971457;28;20208;-76
2022/02/11 07:54:16;;;;;;;27.58;19.55;;;8.50;99.90;;;;;;5781941;23;20286;-86
2022/02/11 07:56:42;;;;;;;27.67;19.60;;;8.80;99.90;;;;;;5045232;28;20642;-86
2022/02/11 07:59:08;;;;;;;21.67;16.73;;;9.10;99.90;;;;;;5040256;28;20216;-89
2022/02/11 08:01:34;;;;;;;21.98;18.42;;;9.40;99.90;;;;;;5047592;28;20440;-87
2022/02/11 08:04:00;;;;;;;25.27;16.77;;;9.80;99.90;;;;;;5071137;28;20582;-89
2022/02/11 08:06:26;;;;;;;23.00;16.95;;;10.40;99.90;;;;;;5066526;28;20268;-87
2022/02/11 08:08:51;;;;;;;19.73;14.60;;;11.00;99.90;;;;;;5050771;28;20316;-87
2022/02/11 08:11:17;;;;;;;19.23;14.80;;;11.70;99.90;;;;;;5051839;28;20695;-89
2022/02/11 08:13:43;;;;;;;17.13;15.17;;;12.40;99.90;;;;;;5054313;28;20184;-88
2022/02/11 08:16:09;;;;;;;20.63;14.93;;;13.10;99.90;;;;;;5059519;28;20193;-86
2022/02/11 08:18:37;;;;;;;25.20;21.97;;;13.90;99.90;;;;;;5055651;28;20173;-85
2022/02/11 08:21:04;;;;;;;21.73;15.53;;;14.50;99.90;;;;;;5034619;28;20687;-87
2022/02/11 08:23:29;;;;;;;19.27;15.83;;;15.10;99.90;;;;;;5047187;28;20531;-88
2022/02/11 08:25:55;;;;;;;18.43;14.10;;;15.70;99.90;;;;;;5069086;28;20634;-89
2022/02/11 08:28:21;;;;;;;17.60;14.93;;;16.10;99.90;;;;;;5048745;28;20642;-87
2022/02/11 08:30:49;;;;;;;17.83;14.50;;;16.70;99.90;;;;;;5054589;28;20995;-87
2022/02/11 08:33:21;;;;;;;18.80;15.73;;;17.10;99.90;;;;;;5064175;28;20430;-87
2022/02/11 08:35:52;;;;;;;18.23;14.30;;;17.50;99.90;;;;;;5053999;28;20449;-86
2022/02/11 08:38:19;;;;;;;17.93;13.50;;;17.90;99.80;;;;;;5058418;28;20505;-89
2022/02/11 08:40:46;;;;;;;18.60;13.23;;;18.60;98.70;;;;;;5059714;28;20429;-86
2022/02/11 08:43:12;;;;;;;20.63;14.67;;;19.10;96.50;;;;;;5057526;28;20555;-87
2022/02/11 08:45:40;;;;;;;20.93;17.17;;;19.50;95.70;;;;;;5075255;28;20432;-87
2022/02/11 08:48:08;;;;;;;24.97;16.40;;;19.90;94.40;;;;;;5074700;28;20422;-89
2022/02/11 08:50:34;;;;;;;21.50;17.60;;;20.30;93.30;;;;;;5073691;28;20477;-87
2022/02/11 08:53:00;;;;;;;23.30;15.60;;;20.60;92.70;;;;;;5057611;28;20914;-87
2022/02/11 08:55:26;;;;;;;17.00;14.27;;;20.80;91.60;;;;;;5053795;28;20530;-87
2022/02/11 08:57:53;;;;;;;19.17;14.00;;;21.20;91.00;;;;;;5050972;28;20414;-88
2022/02/11 09:00:22;;;;;;;14.20;12.50;;;21.50;89.10;;;;;;5050228;28;20450;-88
2022/02/11 09:02:47;;;;;;;14.87;11.97;;;21.70;88.20;;;;;;5062242;28;20427;-87
2022/02/11 09:05:13;;;;;;;14.37;12.07;;;21.90;87.40;;;;;;5052294;28;20450;-90
2022/02/11 09:07:40;;;;;;;17.47;14.30;;;22.10;86.20;;;;;;5051833;28;20181;-87
2022/02/11 09:10:07;;;;;;;14.77;13.13;;;22.20;85.40;;;;;;5053630;28;20217;-91
2022/02/11 09:12:34;;;;;;;15.63;13.90;;;22.20;84.50;;;;;;5056252;28;20453;-90
2022/02/11 09:15:03;;;;;;;15.20;12.70;;;22.40;83.40;;;;;;5039398;28;20512;-91
2022/02/11 09:17:30;;;;;;;16.90;13.43;;;22.60;83.10;;;;;;5049417;28;20435;-89
2022/02/11 09:19:55;;;;;;;23.87;20.43;;;22.70;83.20;;;;;;5057410;28;20471;-90
2022/02/11 09:22:21;;;;;;;24.40;19.80;;;22.80;82.60;;;;;;5056813;28;20925;-91
2022/02/11 09:24:47;;;;;;;18.13;15.23;;;22.80;81.00;;;;;;5043792;28;20213;-90
2022/02/11 09:27:13;;;;;;;17.07;15.03;;;22.80;80.90;;;;;;5048676;28;20178;-87
2022/02/11 09:29:39;;;;;;;19.13;13.30;;;22.70;80.80;;;;;;5053706;28;20489;-90
2022/02/11 09:32:06;;;;;;;18.03;14.03;;;22.60;80.50;;;;;;5054980;28;20427;-87
2022/02/11 09:34:33;;;;;;;15.80;12.90;;;22.40;79.80;;;;;;5050177;28;20289;-88
2022/02/11 09:36:59;;;;;;;15.13;11.50;;;22.10;80.80;;;;;;5052055;28;20427;-90
2022/02/11 09:39:25;;;;;;;17.60;11.37;;;22.10;80.30;;;;;;5049617;28;20442;-86
2022/02/11 09:41:52;;;;;;;13.57;11.93;;;22.20;80.20;;;;;;5052124;28;20185;-88
2022/02/11 09:44:19;;;;;;;14.90;12.43;;;22.60;79.90;;;;;;5050122;28;20521;-87
2022/02/11 09:46:45;;;;;;;15.20;10.90;;;23.10;78.50;;;;;;5049195;28;20458;-88
2022/02/11 09:49:14;;;;;;;14.77;12.43;;;23.70;77.20;;;;;;5045176;28;20879;-87
2022/02/11 09:51:42;;;;;;;19.73;12.10;;;24.00;76.70;;;;;;5044532;28;20466;-90
2022/02/11 09:54:18;;;;;;;14.30;11.23;;;24.30;76.00;;;;;;5046160;28;20485;-91
2022/02/11 09:56:44;;;;;;;17.27;11.90;;;24.60;73.50;;;;;;5051185;28;21045;-91
2022/02/11 09:59:10;;;;;;;17.67;11.03;;;24.60;72.20;;;;;;5059712;28;20496;-88
2022/02/11 10:01:39;;;;;;;18.00;10.63;;;24.50;73.30;;;;;;5047768;28;20534;-90
2022/02/11 10:04:15;;;;;;;13.10;10.60;;;24.60;73.00;;;;;;5045897;28;20476;-90
2022/02/11 10:06:42;;;;;;;14.33;11.00;;;24.40;71.90;;;;;;5041654;28;20425;-88
2022/02/11 10:09:08;;;;;;;15.67;12.10;;;24.30;72.20;;;;;;5043137;28;20483;-87
2022/02/11 10:11:35;;;;;;;12.20;10.70;;;23.80;72.30;;;;;;5046130;28;20454;-91
2022/02/11 10:14:21;;;;;;;20.17;11.57;;;23.50;73.30;;;;;;5048088;28;20508;-90
2022/02/11 10:16:59;;;;;;;13.43;11.10;;;22.80;73.90;;;;;;5058665;28;20434;-91
2022/02/11 10:19:41;;;;;;;15.87;11.40;;;22.50;75.10;;;;;;5042854;28;20969;-91
2022/02/11 10:22:16;;;;;;;18.10;12.50;;;22.00;75.50;;;;;;5045957;28;20960;-88
2022/02/11 10:24:43;;;;;;;16.80;14.03;;;21.50;77.10;;;;;;5047935;28;20549;-90
2022/02/11 10:27:19;;;;;;;18.17;14.00;;;21.10;78.30;;;;;;5049019;28;20509;-87
2022/02/11 10:29:45;;;;;;;18.67;12.87;;;20.80;79.20;;;;;;5050548;28;20906;-87
2022/02/11 10:32:11;;;;;;;18.87;12.97;;;20.40;79.30;;;;;;5055278;28;20451;-87
2022/02/11 10:34:39;;;;;;;16.40;11.20;;;20.20;79.70;;;;;;5051642;28;20458;-90
2022/02/11 10:37:09;;;;;;;15.70;10.97;;;20.00;80.40;;;;;;5044529;28;20290;-87
2022/02/11 10:39:37;;;;;;;14.70;11.90;;;19.70;81.20;;;;;;5047146;28;20460;-87
2022/02/11 10:42:10;;;;;;;13.87;11.47;;;19.40;82.00;;;;;;5051854;28;20427;-90
2022/02/11 10:44:39;;;;;;;13.93;9.40;;;19.10;83.70;;;;;;5051549;28;20947;-90
2022/02/11 10:47:08;;;;;;;11.90;8.63;;;18.90;84.60;;;;;;5039138;28;20427;-91
2022/02/11 10:49:42;;;;;;;9.97;7.60;;;18.60;85.10;;;;;;5049209;28;20935;-91
2022/02/11 10:52:09;;;;;;;15.73;7.60;;;18.50;85.50;;;;;;5029591;28;20501;-90
2022/02/11 10:54:35;;;;;;;10.23;7.70;;;18.40;85.70;;;;;;5045327;28;20483;-90
2022/02/11 10:57:06;;;;;;;9.63;6.87;;;18.40;86.30;;;;;;5044941;28;20588;-89
2022/02/11 10:59:38;;;;;;;10.90;7.27;;;18.30;85.80;;;;;;5044139;28;20492;-90
2022/02/11 11:02:09;;;;;;;9.63;7.23;;;18.30;85.90;;;;;;5056796;28;20419;-91
2022/02/11 11:04:36;;;;;;;14.07;7.07;;;18.40;86.00;;;;;;5046102;28;20454;-87
2022/02/11 11:07:06;;;;;;;8.60;6.87;;;18.40;86.60;;;;;;5048463;28;20472;-87
2022/02/11 11:09:35;;;;;;;10.00;6.97;;;18.40;86.60;;;;;;5054369;28;20482;-87
2022/02/11 11:12:02;;;;;;;9.20;6.37;;;18.50;86.80;;;;;;5047681;28;20960;-87
2022/02/11 11:14:29;;;;;;;8.50;6.10;;;18.50;86.80;;;;;;5045817;28;20780;-87
2022/02/11 11:16:58;;;;;;;9.50;4.93;;;18.50;86.80;;;;;;5065268;28;20481;-88
2022/02/11 11:19:26;;;;;;;8.33;5.80;;;18.40;86.10;;;;;;5045028;28;20443;-89
2022/02/11 11:22:11;;;;;;;10.90;5.70;;;18.30;86.20;;;;;;5057408;28;20427;-89
2022/02/11 11:24:50;;;;;;;12.27;7.60;;;18.10;86.80;;;;;;5034900;28;20555;-86
2022/02/11 11:27:42;;;;;;;10.50;5.40;;;18.00;87.70;;;;;;5036857;28;20481;-86
2022/02/11 11:30:33;;;;;;;5.93;4.87;;;17.90;86.90;;;;;;5042718;28;20482;-89
2022/02/11 11:33:08;;;;;;;6.53;4.43;;;17.80;87.50;;;;;;5049672;28;20434;-89
2022/02/11 11:35:43;;;;;;;7.40;4.30;;;17.70;88.40;;;;;;5047269;28;21029;-90
2022/02/11 11:38:13;;;;;;;6.90;3.93;;;17.80;87.30;;;;;;5070779;28;20434;-89
2022/02/11 11:41:14;;;;;;;6.70;4.07;;;17.80;87.40;;;;;;5057193;28;20522;-89
2022/02/11 11:44:15;;;;;;;9.13;4.73;;;17.80;87.50;;;;;;5043438;28;20449;-87
2022/02/11 11:46:48;;;;;;;6.10;4.63;;;17.80;87.40;;;;;;5046576;28;20435;-88
2022/02/11 11:49:15;;;;;;;11.67;4.40;;;17.80;87.10;;;;;;5049092;28;20505;-90
2022/02/11 11:51:40;;;;;;;9.10;5.10;;;17.70;87.40;;;;;;5052750;28;20410;-91
2022/02/11 11:54:21;;;;;;;8.20;4.50;;;17.70;87.50;;;;;;5050784;28;20491;-90
2022/02/11 11:56:53;;;;;;;7.70;4.60;;;17.60;87.30;;;;;;5052285;28;20188;-90
2022/02/11 11:59:40;;;;;;;9.53;5.00;;;17.60;87.90;;;;;;5058078;28;20494;-89
2022/02/11 12:02:26;;;;;;;6.60;4.10;;;17.60;88.40;;;;;;5053480;28;20441;-89
2022/02/11 12:04:57;;;;;;;14.20;4.60;;;17.60;87.10;;;;;;5052787;28;20459;-89
2022/02/11 12:07:29;;;;;;;6.07;4.60;;;17.60;87.40;;;;;;5046785;28;20882;-89
2022/02/11 12:09:57;;;;;;;6.53;5.43;;;17.60;86.90;;;;;;5056197;28;20494;-89
2022/02/11 12:12:26;;;;;;;5.80;4.63;;;17.50;87.10;;;;;;5050719;28;20426;-89
2022/02/11 12:14:54;;;;;;;10.20;5.40;;;17.40;87.50;;;;;;5047897;28;20441;-89
2022/02/11 12:17:21;;;;;;;6.97;4.70;;;17.40;88.10;;;;;;5048086;28;20492;-89
2022/02/11 12:19:48;;;;;;;11.83;4.43;;;17.30;88.10;;;;;;5045779;28;20490;-86
2022/02/11 12:22:15;;;;;;;9.23;4.40;;;17.30;87.80;;;;;;5047479;28;21033;-89
2022/02/11 12:27:33;;;;;;;8.87;5.40;;;17.20;87.80;;;;;;5051970;28;20938;-87
2022/02/11 12:30:07;;;;;;;9.90;5.83;;;17.20;88.50;;;;;;5048193;28;20486;-86
2022/02/11 12:32:52;;;;;;;7.23;5.10;;;17.10;89.10;;;;;;5045827;28;20473;-90
2022/02/11 12:35:29;;;;;;;8.50;6.20;;;17.10;89.00;;;;;;5044037;28;20452;-86
2022/02/11 12:37:56;;;;;;;16.00;6.47;;;17.10;89.30;;;;;;5046753;28;20442;-90
2022/02/11 12:40:28;;;;;;;6.90;5.50;;;17.00;88.90;;;;;;5043631;28;20525;-87
2022/02/11 12:43:03;;;;;;;10.70;7.87;;;16.90;89.10;;;;;;5050133;28;20414;-87
2022/02/11 12:45:32;;;;;;;8.73;5.70;;;16.80;89.70;;;;;;5047236;28;20456;-88
2022/02/11 12:48:00;;;;;;;8.50;6.43;;;16.70;89.50;;;;;;5057805;28;20427;-86
2022/02/11 12:50:31;;;;;;;12.50;7.33;;;16.50;89.70;;;;;;5046276;28;20492;-87
2022/02/11 12:53:00;;;;;;;7.40;6.50;;;16.40;90.00;;;;;;5045633;28;20958;-87
2022/02/11 12:55:26;;;;;;;12.60;6.43;;;16.20;90.20;;;;;;5062474;28;20461;-87
2022/02/11 12:57:58;;;;;;;9.47;5.90;;;16.00;90.30;;;;;;5045549;28;20435;-87
2022/02/11 13:00:26;;;;;;;7.80;5.20;;;15.90;90.60;;;;;;5042296;28;20778;-87
2022/02/11 13:03:01;;;;;;;7.37;6.63;;;15.80;90.60;;;;;;5054634;28;20472;-86
2022/02/11 13:05:43;;;;;;;8.60;5.13;;;15.70;90.90;;;;;;5072013;28;20546;-87
2022/02/11 13:08:09;;;;;;;6.57;4.43;;;15.60;91.10;;;;;;5069166;28;20438;-86
2022/02/11 13:10:37;;;;;;;12.50;5.80;;;15.50;91.10;;;;;;5052078;28;20472;-90
2022/02/11 13:13:14;;;;;;;10.77;5.50;;;15.40;91.10;;;;;;5050286;28;20422;-86
2022/02/11 13:15:44;;;;;;;14.07;6.60;;;15.40;91.40;;;;;;5057519;28;20459;-86
2022/02/11 13:18:16;;;;;;;14.67;8.07;;;15.30;91.40;;;;;;5054891;28;20466;-86
2022/02/11 13:21:04;;;;;;;10.20;5.50;;;15.30;91.60;;;;;;5072162;28;20448;-90
2022/02/11 13:23:31;;;;;;;9.90;5.53;;;15.20;91.70;;;;;;5053739;28;20400;-86
2022/02/11 13:25:58;;;;;;;6.50;4.90;;;15.10;91.70;;;;;;5058574;28;21019;-90
2022/02/11 13:28:41;;;;;;;6.93;5.40;;;15.10;91.80;;;;;;5048611;28;20518;-91
2022/02/11 13:31:07;;;;;;;9.60;6.50;;;15.00;92.00;;;;;;5056929;28;20458;-91
2022/02/11 13:33:35;;;;;;;6.33;5.10;;;15.00;92.10;;;;;;5062568;28;20438;-86
2022/02/11 13:36:04;;;;;;;13.40;5.87;;;15.00;92.20;;;;;;5082727;28;20204;-87
2022/02/11 13:38:35;;;;;;;8.93;5.40;;;15.00;92.30;;;;;;5071047;28;20791;-90
2022/02/11 13:41:07;;;;;;;8.63;6.43;;;14.90;92.30;;;;;;5071271;28;20514;-90
2022/02/11 13:43:52;;;;;;;11.70;4.90;;;14.90;92.50;;;;;;5073372;28;20446;-87
2022/02/11 13:46:29;;;;;;;9.00;5.90;;;14.90;92.30;;;;;;5067147;28;20461;-88
2022/02/11 13:49:05;;;;;;;7.83;5.90;;;14.90;92.60;;;;;;5043083;28;20588;-91
2022/02/11 13:51:34;;;;;;;10.17;7.00;;;14.90;92.50;;;;;;5075608;28;20468;-90
2022/02/11 13:54:15;;;;;;;9.43;6.03;;;14.90;92.60;;;;;;5049221;28;20471;-91
2022/02/11 13:56:46;;;;;;;8.90;5.80;;;14.90;92.70;;;;;;5056144;28;20411;-89
2022/02/11 13:59:24;;;;;;;10.57;5.30;;;14.90;92.80;;;;;;5052852;28;20474;-87
2022/02/11 14:01:51;;;;;;;9.27;6.00;;;14.90;92.80;;;;;;5050348;28;20465;-87
2022/02/11 14:04:23;;;;;;;10.50;7.90;;;14.90;92.90;;;;;;5053986;28;20522;-89
2022/02/11 14:06:55;;;;;;;10.20;7.20;;;14.90;93.00;;;;;;5055151;28;20407;-90
2022/02/11 14:09:39;;;;;;;11.87;8.43;;;14.90;93.00;;;;;;5049194;28;21011;-87
2022/02/11 14:12:12;;;;;;;9.20;6.90;;;14.90;93.00;;;;;;5040346;28;20497;-87
2022/02/11 14:14:49;;;;;;;8.50;6.70;;;14.90;93.10;;;;;;5056123;28;20454;-86
2022/02/11 14:17:15;;;;;;;10.70;7.30;;;14.90;93.10;;;;;;5052207;28;20426;-90
2022/02/11 14:19:42;;;;;;;14.87;6.90;;;14.90;93.30;;;;;;5047115;28;21019;-87
2022/02/11 14:22:08;;;;;;;9.93;7.27;;;14.90;93.30;;;;;;5046402;28;20178;-87
2022/02/11 14:24:33;;;;;;;7.47;6.77;;;14.90;93.20;;;;;;5047334;28;20468;-89
2022/02/11 14:26:59;;;;;;;11.00;6.97;;;14.90;93.10;;;;;;5053765;28;20196;-90
2022/02/11 14:29:25;;;;;;;11.03;7.00;;;14.90;93.30;;;;;;5056646;28;20317;-88
2022/02/11 14:31:52;;;;;;;9.87;6.33;;;14.90;93.20;;;;;;5046681;28;20174;-89
2022/02/11 14:34:18;;;;;;;11.30;5.07;;;14.90;93.20;;;;;;5053184;28;20508;-87
2022/02/11 14:36:44;;;;;;;6.57;5.03;;;14.90;93.00;;;;;;5052712;28;20423;-86
2022/02/11 14:39:16;;;;;;;6.80;5.50;;;14.90;92.90;;;;;;5047391;28;20431;-89
2022/02/11 14:41:47;;;;;;;11.80;6.00;;;14.80;92.80;;;;;;5045261;28;20835;-87
2022/02/11 14:44:20;;;;;;;6.97;5.10;;;14.90;92.90;;;;;;5049028;28;20431;-90
2022/02/11 14:46:47;;;;;;;9.70;6.20;;;14.80;92.90;;;;;;5047596;28;20570;-87
2022/02/11 14:49:14;;;;;;;11.87;6.40;;;14.80;92.90;;;;;;5048606;28;20478;-89
2022/02/11 14:51:40;;;;;;;15.17;8.10;;;14.80;92.90;;;;;;5050469;28;20411;-87
2022/02/11 14:54:11;;;;;;;6.63;5.70;;;14.70;93.00;;;;;;5059584;28;20533;-90
2022/02/11 14:56:37;;;;;;;9.30;6.07;;;14.70;93.00;;;;;;5058281;28;20415;-87
2022/02/11 14:59:04;;;;;;;8.07;6.80;;;14.70;93.10;;;;;;5047519;28;20524;-87
2022/02/11 15:01:29;;;;;;;11.50;6.80;;;14.70;93.10;;;;;;5043952;28;20422;-90
2022/02/11 15:03:57;;;;;;;11.57;6.43;;;14.60;93.10;;;;;;5037392;28;20820;-86
2022/02/11 15:06:23;;;;;;;9.43;6.90;;;14.60;93.10;;;;;;5044055;28;20197;-87
2022/02/11 15:08:49;;;;;;;8.83;6.13;;;14.60;93.20;;;;;;5050122;28;20802;-87
2022/02/11 15:11:14;;;;;;;8.70;6.33;;;14.60;93.30;;;;;;5055561;28;20443;-86
2022/02/11 15:13:40;;;;;;;8.30;5.97;;;14.60;93.40;;;;;;5052053;28;20503;-90
2022/02/11 15:16:06;;;;;;;10.43;6.27;;;14.50;93.30;;;;;;5043514;28;20478;-87
2022/02/11 15:18:32;;;;;;;10.10;6.30;;;14.50;93.50;;;;;;5052753;28;20554;-89
2022/02/11 15:21:04;;;;;;;13.53;6.80;;;14.40;93.50;;;;;;5051396;28;20530;-87
2022/02/11 15:23:36;;;;;;;19.17;12.57;;;14.50;93.60;;;;;;5049813;28;20442;-87
2022/02/11 15:26:03;;;;;;;10.13;7.90;;;14.40;93.80;;;;;;5052076;28;20843;-90
2022/02/11 15:28:30;;;;;;;14.20;7.50;;;14.40;93.30;;;;;;5048695;28;20434;-87
2022/02/11 15:30:56;;;;;;;14.07;9.50;;;14.30;93.20;;;;;;5047567;28;20476;-88
2022/02/11 15:33:22;;;;;;;6.23;4.90;;;14.30;93.20;;;;;;5035373;28;20431;-90
2022/02/11 15:35:48;;;;;;;7.60;4.13;;;14.20;93.10;;;;;;5045768;28;20445;-87
2022/02/11 15:38:14;;;;;;;6.10;3.67;;;14.20;93.20;;;;;;5047025;28;20538;-88
2022/02/11 15:40:40;;;;;;;5.67;3.70;;;14.10;93.20;;;;;;5056120;28;20732;-87
2022/02/11 15:43:06;;;;;;;7.60;3.57;;;14.10;93.20;;;;;;5044440;28;20423;-87
2022/02/11 15:45:31;;;;;;;5.80;3.80;;;14.10;93.30;;;;;;5031618;28;20198;-87
2022/02/11 15:47:57;;;;;;;5.80;4.00;;;14.00;93.30;;;;;;5043495;28;20186;-88
2022/02/11 15:50:23;;;;;;;10.80;7.67;;;14.00;93.50;;;;;;5050889;28;20221;-86
2022/02/11 15:52:52;;;;;;;9.23;6.83;;;14.00;93.50;;;;;;5047975;28;20422;-87
2022/02/11 15:55:21;;;;;;;15.30;8.13;;;14.00;93.60;;;;;;5046932;28;20473;-89
2022/02/11 15:57:47;;;;;;;11.90;7.50;;;13.90;93.80;;;;;;5051090;28;20437;-89
2022/02/11 16:00:14;;;;;;;14.20;7.10;;;13.90;93.80;;;;;;5051351;28;20438;-89
2022/02/11 16:02:40;;;;;;;12.63;7.47;;;13.90;93.90;;;;;;5054155;28;20244;-88
2022/02/11 16:05:06;;;;;;;10.97;8.30;;;13.90;93.90;;;;;;5068593;28;20453;-90
2022/02/11 16:07:32;;;;;;;11.60;5.80;;;13.90;94.00;;;;;;5053448;28;20403;-88
2022/02/11 16:09:59;;;;;;;11.47;5.90;;;13.90;94.20;;;;;;5052834;28;20573;-90
2022/02/11 16:12:25;;;;;;;6.87;5.20;;;13.90;94.10;;;;;;5053906;28;20426;-89
2022/02/11 16:14:52;;;;;;;7.77;5.97;;;13.90;94.10;;;;;;5054046;28;20461;-90
2022/02/11 16:17:18;;;;;;;8.87;5.50;;;13.80;94.20;;;;;;5054577;28;20477;-90
2022/02/11 16:19:44;;;;;;;7.73;6.10;;;13.80;94.30;;;;;;5046132;28;20963;-90
2022/02/11 16:22:11;;;;;;;7.73;6.07;;;13.80;94.40;;;;;;5037038;28;20855;-88
2022/02/11 16:24:37;;;;;;;10.47;6.30;;;13.80;94.40;;;;;;5034683;28;20968;-88
2022/02/11 16:27:04;;;;;;;13.43;7.13;;;13.80;94.50;;;;;;5034381;28;20415;-88
2022/02/11 16:29:33;;;;;;;12.60;9.00;;;13.80;94.60;;;;;;5034092;28;20486;-90
2022/02/11 16:32:03;;;;;;;6.33;5.43;;;13.80;95.00;;;;;;5041783;28;20399;-88
2022/02/11 16:34:30;;;;;;;7.37;5.17;;;13.70;94.70;;;;;;5041444;28;20455;-88
2022/02/11 16:36:56;;;;;;;10.50;7.97;;;13.70;94.70;;;;;;5039155;28;20546;-88
2022/02/11 16:39:23;;;;;;;15.00;8.40;;;13.70;95.00;;;;;;5036075;28;20452;-87
2022/02/11 16:41:49;;;;;;;14.50;9.07;;;13.60;95.20;;;;;;5044135;28;20473;-90
2022/02/11 16:44:15;;;;;;;14.70;11.10;;;13.50;95.80;;;;;;5038933;28;20431;-88
2022/02/11 16:46:41;;;;;;;16.40;11.70;;;13.40;95.60;;;;;;5048125;28;20272;-90
2022/02/11 16:49:13;;;;;;;14.13;9.00;;;13.30;95.70;;;;;;5037799;28;20510;-90
2022/02/11 16:51:40;;;;;;;8.10;6.17;;;13.30;95.80;;;;;;5036468;28;20454;-91
2022/02/11 16:54:06;;;;;;;5.97;5.07;;;13.20;95.10;;;;;;5040034;28;20506;-88
2022/02/11 16:56:32;;;;;;;7.47;5.17;;;13.10;94.90;;;;;;5045345;28;20442;-89
2022/02/11 16:58:58;;;;;;;6.50;5.37;;;13.00;95.00;;;;;;5055085;28;20429;-88